Terminal Aerodrome Forecast
Issued by NWS

Home | Current Version | Previous Version | Graphics & Text | Print | Product List | Glossary On
Versions: 1 2 3 4 5 6 7 8 9 10 11 12 13 14 15 16
000
FTUS45 KGGW 300520
TAFOLF
TAF
KOLF 300520Z 3006/0106 30012KT P6SM OVC019
     FM301200 29009KT P6SM VCSH OVC020
     FM301800 30007KT P6SM BKN010
     FM010000 VRB03KT P6SM BKN035=

USA.gov is the U.S. government's official web portal to all federal, state and local government web resources and services.